sensor_id;sensor_type;location;lat;lon;timestamp;temperature;humidity
9450;DHT22;4763;48.370;10.874;2024-02-14T00:02:04;1.90;99.90
9450;DHT22;4763;48.370;10.874;2024-02-14T00:04:32;1.90;99.90
9450;DHT22;4763;48.370;10.874;2024-02-14T00:06:59;1.90;99.90
9450;DHT22;4763;48.370;10.874;2024-02-14T00:09:26;2.00;99.90
9450;DHT22;4763;48.370;10.874;2024-02-14T00:11:53;2.10;99.90
9450;DHT22;4763;48.370;10.874;2024-02-14T00:14:20;2.10;99.90
9450;DHT22;4763;48.370;10.874;2024-02-14T00:16:47;2.10;99.90
9450;DHT22;4763;48.370;10.874;2024-02-14T00:19:14;2.00;99.90
9450;DHT22;4763;48.370;10.874;2024-02-14T00:21:42;2.00;99.90
9450;DHT22;4763;48.370;10.874;2024-02-14T00:24:09;1.90;99.90
9450;DHT22;4763;48.370;10.874;2024-02-14T00:26:37;1.90;99.90
9450;DHT22;4763;48.370;10.874;2024-02-14T00:29:05;2.00;99.90
9450;DHT22;4763;48.370;10.874;2024-02-14T00:31:32;2.00;99.90
9450;DHT22;4763;48.370;10.874;2024-02-14T00:33:59;2.00;99.90
9450;DHT22;4763;48.370;10.874;2024-02-14T00:36:25;2.10;99.90
9450;DHT22;4763;48.370;10.874;2024-02-14T00:38:53;2.00;99.90
9450;DHT22;4763;48.370;10.874;2024-02-14T00:41:21;2.00;99.90
9450;DHT22;4763;48.370;10.874;2024-02-14T00:43:47;2.00;99.90
9450;DHT22;4763;48.370;10.874;2024-02-14T00:46:16;2.10;99.90
9450;DHT22;4763;48.370;10.874;2024-02-14T00:48:43;2.00;99.90
9450;DHT22;4763;48.370;10.874;2024-02-14T00:51:11;2.10;99.90
9450;DHT22;4763;48.370;10.874;2024-02-14T00:53:37;2.10;99.90
9450;DHT22;4763;48.370;10.874;2024-02-14T00:56:06;2.20;99.90
9450;DHT22;4763;48.370;10.874;2024-02-14T00:58:33;2.10;99.90
9450;DHT22;4763;48.370;10.874;2024-02-14T01:01:00;2.10;99.90
9450;DHT22;4763;48.370;10.874;2024-02-14T01:03:27;2.10;99.90
9450;DHT22;4763;48.370;10.874;2024-02-14T01:05:54;2.10;99.90
9450;DHT22;4763;48.370;10.874;2024-02-14T01:08:21;2.10;99.90
9450;DHT22;4763;48.370;10.874;2024-02-14T01:10:48;2.00;99.90
9450;DHT22;4763;48.370;10.874;2024-02-14T01:13:17;2.10;99.90
9450;DHT22;4763;48.370;10.874;2024-02-14T01:15:44;2.00;99.90
9450;DHT22;4763;48.370;10.874;2024-02-14T01:18:12;2.00;99.90
9450;DHT22;4763;48.370;10.874;2024-02-14T01:20:38;2.20;99.90
9450;DHT22;4763;48.370;10.874;2024-02-14T01:23:05;2.10;99.90
9450;DHT22;4763;48.370;10.874;2024-02-14T01:25:32;2.10;99.90
9450;DHT22;4763;48.370;10.874;2024-02-14T01:27:59;2.10;99.90
9450;DHT22;4763;48.370;10.874;2024-02-14T01:30:27;2.00;99.90
9450;DHT22;4763;48.370;10.874;2024-02-14T01:32:54;2.00;99.90
9450;DHT22;4763;48.370;10.874;2024-02-14T01:35:21;2.00;99.90
9450;DHT22;4763;48.370;10.874;2024-02-14T01:37:48;2.00;99.90
9450;DHT22;4763;48.370;10.874;2024-02-14T01:40:15;2.10;99.90
9450;DHT22;4763;48.370;10.874;2024-02-14T01:42:41;2.10;99.90
9450;DHT22;4763;48.370;10.874;2024-02-14T01:45:09;2.10;99.90
9450;DHT22;4763;48.370;10.874;2024-02-14T01:47:38;2.10;99.90
9450;DHT22;4763;48.370;10.874;2024-02-14T01:50:08;2.20;99.90
9450;DHT22;4763;48.370;10.874;2024-02-14T01:52:37;2.30;99.90
9450;DHT22;4763;48.370;10.874;2024-02-14T01:55:05;2.30;99.90
9450;DHT22;4763;48.370;10.874;2024-02-14T01:57:33;2.20;99.90
9450;DHT22;4763;48.370;10.874;2024-02-14T02:00:02;2.10;99.90
9450;DHT22;4763;48.370;10.874;2024-02-14T02:02:34;2.10;99.90
9450;DHT22;4763;48.370;10.874;2024-02-14T02:05:03;2.10;99.90
9450;DHT22;4763;48.370;10.874;2024-02-14T02:07:32;2.10;99.90
9450;DHT22;4763;48.370;10.874;2024-02-14T02:09:59;2.00;99.90
9450;DHT22;4763;48.370;10.874;2024-02-14T02:12:26;2.00;99.90
9450;DHT22;4763;48.370;10.874;2024-02-14T02:14:53;2.00;99.90
9450;DHT22;4763;48.370;10.874;2024-02-14T02:17:21;2.00;99.90
9450;DHT22;4763;48.370;10.874;2024-02-14T02:19:47;1.90;99.90
9450;DHT22;4763;48.370;10.874;2024-02-14T02:22:16;1.90;99.90
9450;DHT22;4763;48.370;10.874;2024-02-14T02:24:44;1.90;99.90
9450;DHT22;4763;48.370;10.874;2024-02-14T02:27:13;1.90;99.90
9450;DHT22;4763;48.370;10.874;2024-02-14T02:29:41;1.90;99.90
9450;DHT22;4763;48.370;10.874;2024-02-14T02:32:08;1.90;99.90
9450;DHT22;4763;48.370;10.874;2024-02-14T02:34:36;1.90;99.90
9450;DHT22;4763;48.370;10.874;2024-02-14T02:37:04;2.00;99.90
9450;DHT22;4763;48.370;10.874;2024-02-14T02:39:33;2.00;99.90
9450;DHT22;4763;48.370;10.874;2024-02-14T02:42:03;2.00;99.90
9450;DHT22;4763;48.370;10.874;2024-02-14T02:44:31;2.00;99.90
9450;DHT22;4763;48.370;10.874;2024-02-14T02:46:58;2.10;99.90
9450;DHT22;4763;48.370;10.874;2024-02-14T02:49:26;2.10;99.90
9450;DHT22;4763;48.370;10.874;2024-02-14T02:51:54;2.10;99.90
9450;DHT22;4763;48.370;10.874;2024-02-14T02:54:21;2.10;99.90
9450;DHT22;4763;48.370;10.874;2024-02-14T02:56:49;2.20;99.90
9450;DHT22;4763;48.370;10.874;2024-02-14T02:59:17;2.30;99.90
9450;DHT22;4763;48.370;10.874;2024-02-14T03:01:44;2.30;99.90
9450;DHT22;4763;48.370;10.874;2024-02-14T03:04:11;2.30;99.90
9450;DHT22;4763;48.370;10.874;2024-02-14T03:06:40;2.30;99.90
9450;DHT22;4763;48.370;10.874;2024-02-14T03:09:08;2.30;99.90
9450;DHT22;4763;48.370;10.874;2024-02-14T03:11:35;2.40;99.90
9450;DHT22;4763;48.370;10.874;2024-02-14T03:14:03;2.30;99.90
9450;DHT22;4763;48.370;10.874;2024-02-14T03:16:31;2.30;99.90
9450;DHT22;4763;48.370;10.874;2024-02-14T03:18:57;2.30;99.90
9450;DHT22;4763;48.370;10.874;2024-02-14T03:21:26;2.20;99.90
9450;DHT22;4763;48.370;10.874;2024-02-14T03:23:54;2.30;99.90
9450;DHT22;4763;48.370;10.874;2024-02-14T03:26:21;2.20;99.90
9450;DHT22;4763;48.370;10.874;2024-02-14T03:28:48;2.30;99.90
9450;DHT22;4763;48.370;10.874;2024-02-14T03:31:15;2.30;99.90
9450;DHT22;4763;48.370;10.874;2024-02-14T03:33:43;2.30;99.90
9450;DHT22;4763;48.370;10.874;2024-02-14T03:36:10;2.30;99.90
9450;DHT22;4763;48.370;10.874;2024-02-14T03:38:37;2.40;99.90
9450;DHT22;4763;48.370;10.874;2024-02-14T03:41:05;2.40;99.90
9450;DHT22;4763;48.370;10.874;2024-02-14T03:43:32;2.50;99.90
9450;DHT22;4763;48.370;10.874;2024-02-14T03:46:00;2.50;99.90
9450;DHT22;4763;48.370;10.874;2024-02-14T03:48:27;2.50;99.90
9450;DHT22;4763;48.370;10.874;2024-02-14T03:50:55;2.60;99.90
9450;DHT22;4763;48.370;10.874;2024-02-14T03:53:22;2.70;99.90
9450;DHT22;4763;48.370;10.874;2024-02-14T03:55:50;2.80;99.90
9450;DHT22;4763;48.370;10.874;2024-02-14T03:58:18;2.80;99.90
9450;DHT22;4763;48.370;10.874;2024-02-14T04:00:48;2.80;99.90
9450;DHT22;4763;48.370;10.874;2024-02-14T04:03:16;2.90;99.90
9450;DHT22;4763;48.370;10.874;2024-02-14T04:05:43;2.90;99.90
9450;DHT22;4763;48.370;10.874;2024-02-14T04:08:11;2.90;99.90
9450;DHT22;4763;48.370;10.874;2024-02-14T04:10:38;3.00;99.90
9450;DHT22;4763;48.370;10.874;2024-02-14T04:13:05;3.10;99.90
9450;DHT22;4763;48.370;10.874;2024-02-14T04:15:32;3.10;99.90
9450;DHT22;4763;48.370;10.874;2024-02-14T04:17:59;3.20;99.90
9450;DHT22;4763;48.370;10.874;2024-02-14T04:20:28;3.20;99.90
9450;DHT22;4763;48.370;10.874;2024-02-14T04:22:55;3.10;99.90
9450;DHT22;4763;48.370;10.874;2024-02-14T04:25:25;3.20;99.90
9450;DHT22;4763;48.370;10.874;2024-02-14T04:27:52;3.20;99.90
9450;DHT22;4763;48.370;10.874;2024-02-14T04:30:19;3.20;99.90
9450;DHT22;4763;48.370;10.874;2024-02-14T04:32:46;3.20;99.90
9450;DHT22;4763;48.370;10.874;2024-02-14T04:35:13;3.30;99.90
9450;DHT22;4763;48.370;10.874;2024-02-14T04:37:40;3.40;99.90
9450;DHT22;4763;48.370;10.874;2024-02-14T04:40:12;3.50;99.90
9450;DHT22;4763;48.370;10.874;2024-02-14T04:42:41;3.50;99.90
9450;DHT22;4763;48.370;10.874;2024-02-14T04:45:10;3.50;99.90
9450;DHT22;4763;48.370;10.874;2024-02-14T04:47:37;3.40;99.90
9450;DHT22;4763;48.370;10.874;2024-02-14T04:50:05;3.50;99.90
9450;DHT22;4763;48.370;10.874;2024-02-14T04:52:32;3.50;99.90
9450;DHT22;4763;48.370;10.874;2024-02-14T04:54:59;3.50;99.90
9450;DHT22;4763;48.370;10.874;2024-02-14T04:57:26;3.40;99.90
9450;DHT22;4763;48.370;10.874;2024-02-14T04:59:54;3.40;99.90
9450;DHT22;4763;48.370;10.874;2024-02-14T05:02:21;3.40;99.90
9450;DHT22;4763;48.370;10.874;2024-02-14T05:04:48;3.40;99.90
9450;DHT22;4763;48.370;10.874;2024-02-14T05:07:15;3.50;99.90
9450;DHT22;4763;48.370;10.874;2024-02-14T05:09:42;3.60;99.90
9450;DHT22;4763;48.370;10.874;2024-02-14T05:12:10;3.60;99.90
9450;DHT22;4763;48.370;10.874;2024-02-14T05:14:38;3.50;99.90
9450;DHT22;4763;48.370;10.874;2024-02-14T05:17:07;3.50;99.90
9450;DHT22;4763;48.370;10.874;2024-02-14T05:19:34;3.50;99.90
9450;DHT22;4763;48.370;10.874;2024-02-14T05:22:01;3.60;99.90
9450;DHT22;4763;48.370;10.874;2024-02-14T05:24:28;3.70;99.90
9450;DHT22;4763;48.370;10.874;2024-02-14T05:26:56;3.70;99.90
9450;DHT22;4763;48.370;10.874;2024-02-14T05:29:23;3.80;99.90
9450;DHT22;4763;48.370;10.874;2024-02-14T05:31:50;3.70;99.90
9450;DHT22;4763;48.370;10.874;2024-02-14T05:34:19;3.70;99.90
9450;DHT22;4763;48.370;10.874;2024-02-14T05:36:46;3.60;99.90
9450;DHT22;4763;48.370;10.874;2024-02-14T05:39:13;3.70;99.90
9450;DHT22;4763;48.370;10.874;2024-02-14T05:41:41;3.70;99.90
9450;DHT22;4763;48.370;10.874;2024-02-14T05:44:08;3.70;99.90
9450;DHT22;4763;48.370;10.874;2024-02-14T05:46:37;3.80;99.90
9450;DHT22;4763;48.370;10.874;2024-02-14T05:49:04;3.80;99.90
9450;DHT22;4763;48.370;10.874;2024-02-14T05:51:33;3.70;99.90
9450;DHT22;4763;48.370;10.874;2024-02-14T05:54:01;3.70;99.90
9450;DHT22;4763;48.370;10.874;2024-02-14T05:56:28;3.80;99.90
9450;DHT22;4763;48.370;10.874;2024-02-14T05:58:55;3.70;99.90
9450;DHT22;4763;48.370;10.874;2024-02-14T06:01:21;3.70;99.90
9450;DHT22;4763;48.370;10.874;2024-02-14T06:03:48;3.70;99.90
9450;DHT22;4763;48.370;10.874;2024-02-14T06:06:15;3.70;99.90
9450;DHT22;4763;48.370;10.874;2024-02-14T06:08:43;3.70;99.90
9450;DHT22;4763;48.370;10.874;2024-02-14T06:11:10;3.70;99.90
9450;DHT22;4763;48.370;10.874;2024-02-14T06:13:38;3.70;99.90
9450;DHT22;4763;48.370;10.874;2024-02-14T06:16:05;3.70;99.90
9450;DHT22;4763;48.370;10.874;2024-02-14T06:18:33;3.70;99.90
9450;DHT22;4763;48.370;10.874;2024-02-14T06:21:01;3.70;99.90
9450;DHT22;4763;48.370;10.874;2024-02-14T06:23:27;3.80;99.90
9450;DHT22;4763;48.370;10.874;2024-02-14T06:25:56;3.80;99.90
9450;DHT22;4763;48.370;10.874;2024-02-14T06:28:23;3.90;99.90
9450;DHT22;4763;48.370;10.874;2024-02-14T06:30:51;3.90;99.90
9450;DHT22;4763;48.370;10.874;2024-02-14T06:33:18;4.00;99.90
9450;DHT22;4763;48.370;10.874;2024-02-14T06:35:45;4.00;99.90
9450;DHT22;4763;48.370;10.874;2024-02-14T06:38:11;4.10;99.90
9450;DHT22;4763;48.370;10.874;2024-02-14T06:40:49;4.20;99.90
9450;DHT22;4763;48.370;10.874;2024-02-14T06:43:17;4.20;99.90
9450;DHT22;4763;48.370;10.874;2024-02-14T06:45:45;4.30;99.90
9450;DHT22;4763;48.370;10.874;2024-02-14T06:48:12;4.30;99.90
9450;DHT22;4763;48.370;10.874;2024-02-14T06:50:39;4.30;99.90
9450;DHT22;4763;48.370;10.874;2024-02-14T06:53:06;4.30;99.90
9450;DHT22;4763;48.370;10.874;2024-02-14T06:55:33;4.30;99.90
9450;DHT22;4763;48.370;10.874;2024-02-14T06:58:03;4.30;99.90
9450;DHT22;4763;48.370;10.874;2024-02-14T07:00:32;4.30;99.90
9450;DHT22;4763;48.370;10.874;2024-02-14T07:02:59;4.40;99.90
9450;DHT22;4763;48.370;10.874;2024-02-14T07:05:26;4.40;99.90
9450;DHT22;4763;48.370;10.874;2024-02-14T07:07:54;4.50;99.90
9450;DHT22;4763;48.370;10.874;2024-02-14T07:10:21;4.50;99.90
9450;DHT22;4763;48.370;10.874;2024-02-14T07:12:48;4.70;99.90
9450;DHT22;4763;48.370;10.874;2024-02-14T07:15:15;4.70;99.90
9450;DHT22;4763;48.370;10.874;2024-02-14T07:17:43;4.80;99.90
9450;DHT22;4763;48.370;10.874;2024-02-14T07:20:10;5.10;99.90
9450;DHT22;4763;48.370;10.874;2024-02-14T07:22:38;5.20;99.90
9450;DHT22;4763;48.370;10.874;2024-02-14T07:25:05;5.40;99.90
9450;DHT22;4763;48.370;10.874;2024-02-14T07:27:33;5.40;99.90
9450;DHT22;4763;48.370;10.874;2024-02-14T07:30:00;5.50;99.90
9450;DHT22;4763;48.370;10.874;2024-02-14T07:32:27;5.50;99.90
9450;DHT22;4763;48.370;10.874;2024-02-14T07:34:55;5.60;99.90
9450;DHT22;4763;48.370;10.874;2024-02-14T07:37:22;5.70;99.90
9450;DHT22;4763;48.370;10.874;2024-02-14T07:39:51;5.80;99.90
9450;DHT22;4763;48.370;10.874;2024-02-14T07:42:17;5.90;99.90
9450;DHT22;4763;48.370;10.874;2024-02-14T07:44:44;6.00;99.90
9450;DHT22;4763;48.370;10.874;2024-02-14T07:47:11;6.10;99.90
9450;DHT22;4763;48.370;10.874;2024-02-14T07:49:39;6.20;99.90
9450;DHT22;4763;48.370;10.874;2024-02-14T07:52:08;6.40;99.90
9450;DHT22;4763;48.370;10.874;2024-02-14T07:54:35;6.40;99.90
9450;DHT22;4763;48.370;10.874;2024-02-14T07:57:03;6.50;99.90
9450;DHT22;4763;48.370;10.874;2024-02-14T07:59:30;6.50;99.90
9450;DHT22;4763;48.370;10.874;2024-02-14T08:01:57;6.60;99.90
9450;DHT22;4763;48.370;10.874;2024-02-14T08:04:24;6.70;99.90
9450;DHT22;4763;48.370;10.874;2024-02-14T08:06:51;6.70;99.90
9450;DHT22;4763;48.370;10.874;2024-02-14T08:09:19;6.90;99.90
9450;DHT22;4763;48.370;10.874;2024-02-14T08:11:46;7.00;99.90
9450;DHT22;4763;48.370;10.874;2024-02-14T08:14:13;7.10;99.90
9450;DHT22;4763;48.370;10.874;2024-02-14T08:16:40;7.30;99.90
9450;DHT22;4763;48.370;10.874;2024-02-14T08:19:08;7.50;99.90
9450;DHT22;4763;48.370;10.874;2024-02-14T08:21:35;7.50;99.90
9450;DHT22;4763;48.370;10.874;2024-02-14T08:24:02;7.80;99.90
9450;DHT22;4763;48.370;10.874;2024-02-14T08:26:32;7.90;99.90
9450;DHT22;4763;48.370;10.874;2024-02-14T08:28:58;8.00;99.90
9450;DHT22;4763;48.370;10.874;2024-02-14T08:31:25;8.00;99.90
9450;DHT22;4763;48.370;10.874;2024-02-14T08:33:52;8.10;99.90
9450;DHT22;4763;48.370;10.874;2024-02-14T08:36:20;8.20;99.90
9450;DHT22;4763;48.370;10.874;2024-02-14T08:38:47;8.20;99.90
9450;DHT22;4763;48.370;10.874;2024-02-14T08:41:14;8.10;99.90
9450;DHT22;4763;48.370;10.874;2024-02-14T08:43:44;8.10;99.90
9450;DHT22;4763;48.370;10.874;2024-02-14T08:46:11;8.10;99.90
9450;DHT22;4763;48.370;10.874;2024-02-14T08:48:38;8.10;99.90
9450;DHT22;4763;48.370;10.874;2024-02-14T08:51:17;8.10;99.90
9450;DHT22;4763;48.370;10.874;2024-02-14T08:53:45;8.10;99.90
9450;DHT22;4763;48.370;10.874;2024-02-14T08:56:13;8.00;99.90
9450;DHT22;4763;48.370;10.874;2024-02-14T08:58:40;8.10;99.90
9450;DHT22;4763;48.370;10.874;2024-02-14T09:01:08;8.10;99.90
9450;DHT22;4763;48.370;10.874;2024-02-14T09:03:36;8.10;99.90
9450;DHT22;4763;48.370;10.874;2024-02-14T09:06:03;8.30;99.90
9450;DHT22;4763;48.370;10.874;2024-02-14T09:08:32;8.30;99.90
9450;DHT22;4763;48.370;10.874;2024-02-14T09:10:58;8.30;99.90
9450;DHT22;4763;48.370;10.874;2024-02-14T09:13:26;8.30;99.90
9450;DHT22;4763;48.370;10.874;2024-02-14T09:15:53;8.30;99.90
9450;DHT22;4763;48.370;10.874;2024-02-14T09:18:21;8.40;99.90
9450;DHT22;4763;48.370;10.874;2024-02-14T09:20:51;8.50;99.90
9450;DHT22;4763;48.370;10.874;2024-02-14T09:23:18;8.60;99.90
9450;DHT22;4763;48.370;10.874;2024-02-14T09:25:46;8.60;99.90
9450;DHT22;4763;48.370;10.874;2024-02-14T09:28:13;8.70;99.90
9450;DHT22;4763;48.370;10.874;2024-02-14T09:30:40;8.80;99.90
9450;DHT22;4763;48.370;10.874;2024-02-14T09:33:07;8.70;99.90
9450;DHT22;4763;48.370;10.874;2024-02-14T09:35:35;8.80;99.90
9450;DHT22;4763;48.370;10.874;2024-02-14T09:38:03;8.70;99.90
9450;DHT22;4763;48.370;10.874;2024-02-14T09:40:31;8.80;99.90
9450;DHT22;4763;48.370;10.874;2024-02-14T09:43:03;8.90;99.90
9450;DHT22;4763;48.370;10.874;2024-02-14T09:45:32;9.00;99.90
9450;DHT22;4763;48.370;10.874;2024-02-14T09:47:59;9.00;99.90
9450;DHT22;4763;48.370;10.874;2024-02-14T09:50:29;9.00;99.90
9450;DHT22;4763;48.370;10.874;2024-02-14T09:52:59;9.20;99.90
9450;DHT22;4763;48.370;10.874;2024-02-14T09:55:26;9.30;99.90
9450;DHT22;4763;48.370;10.874;2024-02-14T09:57:54;9.40;99.90
9450;DHT22;4763;48.370;10.874;2024-02-14T10:00:22;9.60;99.90
9450;DHT22;4763;48.370;10.874;2024-02-14T10:02:49;9.70;99.90
9450;DHT22;4763;48.370;10.874;2024-02-14T10:05:16;9.80;99.90
9450;DHT22;4763;48.370;10.874;2024-02-14T10:07:44;9.80;99.90
9450;DHT22;4763;48.370;10.874;2024-02-14T10:10:13;9.80;99.90
9450;DHT22;4763;48.370;10.874;2024-02-14T10:12:42;9.80;99.90
9450;DHT22;4763;48.370;10.874;2024-02-14T10:15:09;9.80;99.90
9450;DHT22;4763;48.370;10.874;2024-02-14T10:17:36;9.90;99.90
9450;DHT22;4763;48.370;10.874;2024-02-14T10:20:07;10.20;99.90
9450;DHT22;4763;48.370;10.874;2024-02-14T10:22:36;10.30;99.90
9450;DHT22;4763;48.370;10.874;2024-02-14T10:25:04;10.30;99.90
9450;DHT22;4763;48.370;10.874;2024-02-14T10:27:36;10.30;99.90
9450;DHT22;4763;48.370;10.874;2024-02-14T10:30:04;10.30;99.90
9450;DHT22;4763;48.370;10.874;2024-02-14T10:32:34;10.40;99.90
9450;DHT22;4763;48.370;10.874;2024-02-14T10:35:06;10.40;99.90
9450;DHT22;4763;48.370;10.874;2024-02-14T10:37:34;10.60;99.90
9450;DHT22;4763;48.370;10.874;2024-02-14T10:40:03;10.60;99.90
9450;DHT22;4763;48.370;10.874;2024-02-14T10:42:32;10.60;99.90
9450;DHT22;4763;48.370;10.874;2024-02-14T10:45:04;10.70;99.90
9450;DHT22;4763;48.370;10.874;2024-02-14T10:47:35;10.80;99.90
9450;DHT22;4763;48.370;10.874;2024-02-14T10:50:03;10.80;99.90
9450;DHT22;4763;48.370;10.874;2024-02-14T10:52:33;10.80;99.90
9450;DHT22;4763;48.370;10.874;2024-02-14T10:55:02;10.80;99.90
9450;DHT22;4763;48.370;10.874;2024-02-14T10:57:30;10.80;99.90
9450;DHT22;4763;48.370;10.874;2024-02-14T10:59:59;10.80;99.90
9450;DHT22;4763;48.370;10.874;2024-02-14T11:02:28;10.70;99.90
9450;DHT22;4763;48.370;10.874;2024-02-14T11:04:56;10.80;99.90
9450;DHT22;4763;48.370;10.874;2024-02-14T11:07:23;10.90;99.90
9450;DHT22;4763;48.370;10.874;2024-02-14T11:10:00;10.90;99.90
9450;DHT22;4763;48.370;10.874;2024-02-14T11:12:32;10.80;99.90
9450;DHT22;4763;48.370;10.874;2024-02-14T11:15:00;10.90;99.90
9450;DHT22;4763;48.370;10.874;2024-02-14T11:17:31;11.00;99.90
9450;DHT22;4763;48.370;10.874;2024-02-14T11:19:58;11.10;99.90
9450;DHT22;4763;48.370;10.874;2024-02-14T11:22:24;11.10;99.90
9450;DHT22;4763;48.370;10.874;2024-02-14T11:24:52;11.20;99.90
9450;DHT22;4763;48.370;10.874;2024-02-14T11:27:19;11.50;99.90
9450;DHT22;4763;48.370;10.874;2024-02-14T11:29:51;11.50;99.90
9450;DHT22;4763;48.370;10.874;2024-02-14T11:32:18;11.60;99.90
9450;DHT22;4763;48.370;10.874;2024-02-14T11:34:54;11.70;99.90
9450;DHT22;4763;48.370;10.874;2024-02-14T11:37:27;11.80;99.90
9450;DHT22;4763;48.370;10.874;2024-02-14T11:39:54;11.70;99.90
9450;DHT22;4763;48.370;10.874;2024-02-14T11:42:22;11.70;99.90
9450;DHT22;4763;48.370;10.874;2024-02-14T11:44:48;11.80;99.90
9450;DHT22;4763;48.370;10.874;2024-02-14T11:47:16;11.80;99.90
9450;DHT22;4763;48.370;10.874;2024-02-14T11:49:43;11.90;99.90
9450;DHT22;4763;48.370;10.874;2024-02-14T11:52:12;11.90;99.90
9450;DHT22;4763;48.370;10.874;2024-02-14T11:54:46;12.00;99.90
9450;DHT22;4763;48.370;10.874;2024-02-14T11:57:17;12.10;99.90
9450;DHT22;4763;48.370;10.874;2024-02-14T11:59:44;12.20;99.90
9450;DHT22;4763;48.370;10.874;2024-02-14T12:02:12;12.40;99.90
9450;DHT22;4763;48.370;10.874;2024-02-14T12:04:39;12.50;99.90
9450;DHT22;4763;48.370;10.874;2024-02-14T12:07:07;12.50;99.90
9450;DHT22;4763;48.370;10.874;2024-02-14T12:09:35;12.50;99.90
9450;DHT22;4763;48.370;10.874;2024-02-14T12:12:02;12.70;99.90
9450;DHT22;4763;48.370;10.874;2024-02-14T12:14:29;12.60;99.90
9450;DHT22;4763;48.370;10.874;2024-02-14T12:16:59;12.90;99.90
9450;DHT22;4763;48.370;10.874;2024-02-14T12:19:26;13.20;99.90
9450;DHT22;4763;48.370;10.874;2024-02-14T12:21:52;13.40;99.90
9450;DHT22;4763;48.370;10.874;2024-02-14T12:24:20;13.40;99.90
9450;DHT22;4763;48.370;10.874;2024-02-14T12:26:50;13.30;99.90
9450;DHT22;4763;48.370;10.874;2024-02-14T12:29:18;13.30;99.90
9450;DHT22;4763;48.370;10.874;2024-02-14T12:31:44;13.20;99.90
9450;DHT22;4763;48.370;10.874;2024-02-14T12:34:12;13.30;99.90
9450;DHT22;4763;48.370;10.874;2024-02-14T12:36:39;13.30;99.90
9450;DHT22;4763;48.370;10.874;2024-02-14T12:39:06;13.30;99.90
9450;DHT22;4763;48.370;10.874;2024-02-14T12:41:34;13.20;99.90
9450;DHT22;4763;48.370;10.874;2024-02-14T12:44:06;13.30;99.90
9450;DHT22;4763;48.370;10.874;2024-02-14T12:46:33;13.50;99.90
9450;DHT22;4763;48.370;10.874;2024-02-14T12:49:03;13.80;99.90
9450;DHT22;4763;48.370;10.874;2024-02-14T12:51:37;13.90;99.90
9450;DHT22;4763;48.370;10.874;2024-02-14T12:54:08;13.90;99.90
9450;DHT22;4763;48.370;10.874;2024-02-14T12:56:37;14.00;99.90
9450;DHT22;4763;48.370;10.874;2024-02-14T12:59:07;13.90;99.90
9450;DHT22;4763;48.370;10.874;2024-02-14T13:01:35;14.10;99.90
9450;DHT22;4763;48.370;10.874;2024-02-14T13:04:02;14.30;99.90
9450;DHT22;4763;48.370;10.874;2024-02-14T13:06:30;14.20;99.90
9450;DHT22;4763;48.370;10.874;2024-02-14T13:08:58;14.20;99.90
9450;DHT22;4763;48.370;10.874;2024-02-14T13:11:25;14.20;99.90
9450;DHT22;4763;48.370;10.874;2024-02-14T13:13:52;14.20;99.90
9450;DHT22;4763;48.370;10.874;2024-02-14T13:16:22;14.20;99.90
9450;DHT22;4763;48.370;10.874;2024-02-14T13:18:48;14.30;99.90
9450;DHT22;4763;48.370;10.874;2024-02-14T13:21:15;14.40;99.90
9450;DHT22;4763;48.370;10.874;2024-02-14T13:23:42;14.40;99.90
9450;DHT22;4763;48.370;10.874;2024-02-14T13:26:09;14.60;99.90
9450;DHT22;4763;48.370;10.874;2024-02-14T13:28:36;14.60;99.90
9450;DHT22;4763;48.370;10.874;2024-02-14T13:31:03;14.60;99.90
9450;DHT22;4763;48.370;10.874;2024-02-14T13:33:31;14.80;99.90
9450;DHT22;4763;48.370;10.874;2024-02-14T13:35:58;15.10;99.90
9450;DHT22;4763;48.370;10.874;2024-02-14T13:38:25;15.30;99.90
9450;DHT22;4763;48.370;10.874;2024-02-14T13:40:52;15.40;99.90
9450;DHT22;4763;48.370;10.874;2024-02-14T13:43:18;15.30;99.90
9450;DHT22;4763;48.370;10.874;2024-02-14T13:45:46;15.00;99.90
9450;DHT22;4763;48.370;10.874;2024-02-14T13:48:14;14.70;99.90
9450;DHT22;4763;48.370;10.874;2024-02-14T13:50:43;14.50;99.90
9450;DHT22;4763;48.370;10.874;2024-02-14T13:53:10;14.60;99.90
9450;DHT22;4763;48.370;10.874;2024-02-14T13:55:37;14.80;99.90
9450;DHT22;4763;48.370;10.874;2024-02-14T13:58:05;14.80;99.90
9450;DHT22;4763;48.370;10.874;2024-02-14T14:00:35;15.00;99.90
9450;DHT22;4763;48.370;10.874;2024-02-14T14:03:02;15.10;99.90
9450;DHT22;4763;48.370;10.874;2024-02-14T14:05:29;15.60;99.90
9450;DHT22;4763;48.370;10.874;2024-02-14T14:07:57;15.70;99.90
9450;DHT22;4763;48.370;10.874;2024-02-14T14:10:26;15.70;99.90
9450;DHT22;4763;48.370;10.874;2024-02-14T14:12:53;15.60;99.90
9450;DHT22;4763;48.370;10.874;2024-02-14T14:15:20;15.40;99.90
9450;DHT22;4763;48.370;10.874;2024-02-14T14:17:48;15.10;99.90
9450;DHT22;4763;48.370;10.874;2024-02-14T14:20:15;14.80;99.90
9450;DHT22;4763;48.370;10.874;2024-02-14T14:22:42;14.50;99.90
9450;DHT22;4763;48.370;10.874;2024-02-14T14:25:10;14.30;99.90
9450;DHT22;4763;48.370;10.874;2024-02-14T14:27:37;14.10;99.90
9450;DHT22;4763;48.370;10.874;2024-02-14T14:30:05;14.00;99.90
9450;DHT22;4763;48.370;10.874;2024-02-14T14:32:32;13.90;99.90
9450;DHT22;4763;48.370;10.874;2024-02-14T14:34:59;13.80;99.90
9450;DHT22;4763;48.370;10.874;2024-02-14T14:37:26;13.80;99.90
9450;DHT22;4763;48.370;10.874;2024-02-14T14:39:52;13.70;99.90
9450;DHT22;4763;48.370;10.874;2024-02-14T14:42:22;13.70;99.90
9450;DHT22;4763;48.370;10.874;2024-02-14T14:44:49;13.60;99.90
9450;DHT22;4763;48.370;10.874;2024-02-14T14:47:17;13.50;99.90
9450;DHT22;4763;48.370;10.874;2024-02-14T14:49:43;13.50;99.90
9450;DHT22;4763;48.370;10.874;2024-02-14T14:52:10;13.50;99.90
9450;DHT22;4763;48.370;10.874;2024-02-14T14:54:37;13.50;99.90
9450;DHT22;4763;48.370;10.874;2024-02-14T14:57:04;13.40;99.90
9450;DHT22;4763;48.370;10.874;2024-02-14T14:59:39;13.40;99.90
9450;DHT22;4763;48.370;10.874;2024-02-14T15:02:07;13.30;99.90
9450;DHT22;4763;48.370;10.874;2024-02-14T15:04:35;13.20;99.90
9450;DHT22;4763;48.370;10.874;2024-02-14T15:07:05;13.20;99.90
9450;DHT22;4763;48.370;10.874;2024-02-14T15:09:32;13.10;99.90
9450;DHT22;4763;48.370;10.874;2024-02-14T15:11:59;13.10;99.90
9450;DHT22;4763;48.370;10.874;2024-02-14T15:14:25;13.00;99.90
9450;DHT22;4763;48.370;10.874;2024-02-14T15:16:53;13.00;99.90
9450;DHT22;4763;48.370;10.874;2024-02-14T15:19:20;13.00;99.90
9450;DHT22;4763;48.370;10.874;2024-02-14T15:21:49;12.90;99.90
9450;DHT22;4763;48.370;10.874;2024-02-14T15:24:16;12.90;99.90
9450;DHT22;4763;48.370;10.874;2024-02-14T15:26:43;12.90;99.90
9450;DHT22;4763;48.370;10.874;2024-02-14T15:29:16;12.80;99.90
9450;DHT22;4763;48.370;10.874;2024-02-14T15:32:02;12.70;99.90
9450;DHT22;4763;48.370;10.874;2024-02-14T15:34:47;12.70;99.90
9450;DHT22;4763;48.370;10.874;2024-02-14T15:37:14;12.70;99.90
9450;DHT22;4763;48.370;10.874;2024-02-14T15:39:43;12.70;99.90
9450;DHT22;4763;48.370;10.874;2024-02-14T15:42:10;12.60;99.90
9450;DHT22;4763;48.370;10.874;2024-02-14T15:44:37;12.60;99.90
9450;DHT22;4763;48.370;10.874;2024-02-14T15:47:06;12.60;99.90
9450;DHT22;4763;48.370;10.874;2024-02-14T15:49:36;12.50;99.90
9450;DHT22;4763;48.370;10.874;2024-02-14T15:52:03;12.50;99.90
9450;DHT22;4763;48.370;10.874;2024-02-14T15:54:31;12.50;99.90
9450;DHT22;4763;48.370;10.874;2024-02-14T15:56:57;12.40;99.90
9450;DHT22;4763;48.370;10.874;2024-02-14T15:59:25;12.40;99.90
9450;DHT22;4763;48.370;10.874;2024-02-14T16:01:52;12.40;99.90